Latest Weather Observations for Moruya Airport

IDN60901

Issued at 11:15 am EDT Tuesday 25 November 2014 (issued every 10 minutes, with the page automatically refreshed every 10 minutes)

About weather observations | Map of Canberra area stations | Latest observations for Canberra area | Other Formats
Station Details ID: 069148 Name: MORUYA AIRPORT AWS Lat: -35.90 Lon: 150.14 Height: 4.0 m
Data from the previous 72 hours. | See also: Recent months for locations in Aust Capital Territory
Date/Time
EDT
Tmp

°C
App
Tmp
°C
Dew
Point
°C
Rel
Hum
%
Delta-T

°C
Wind Press
QNH
hPa
Press
MSL
hPa
Rain
since
9 am
mm
Dir
 
Spd
km/h
Gust
km/h
Spd
kts
Gust
kts
25/11:00am 20.3 19.2 15.3 73 3.0 ENE 15 17 8 9 1014.6 1014.5 0.0
25/10:30am 20.0 19.6 15.2 74 2.8 ESE 11 15 6 8 1014.5 1014.4 0.0
25/10:00am 19.7 18.8 14.9 74 2.8 ESE 13 17 7 9 1014.5 1014.4 0.0
25/09:30am 19.7 19.8 15.6 77 2.4 E 9 15 5 8 1014.0 1013.9 0.0
25/09:00am 18.6 19.0 15.3 81 1.9 S 7 11 4 6 1013.9 1013.8 6.0
25/08:30am 17.7 16.6 14.4 81 1.9 S 13 15 7 8 1013.4 1013.3 6.0
25/08:00am 17.4 16.2 13.9 80 2.0 S 13 17 7 9 1012.6 1012.5 6.0
25/07:30am 17.0 15.1 14.3 84 1.5 S 17 26 9 14 1012.4 1012.3 6.0
25/07:00am 17.1 15.8 14.9 87 1.3 SSE 15 24 8 13 1011.6 1011.5 6.0
25/06:30am 17.3 17.0 15.5 89 1.1 S 11 20 6 11 1010.9 1010.8 6.0
25/06:00am 17.1 15.5 15.1 88 1.2 SSE 17 24 9 13 1010.2 1010.1 6.0
25/05:30am 17.0 14.1 15.0 88 1.2 SSE 24 39 13 21 1009.5 1009.4 6.0
25/05:00am 17.4 14.0 15.9 91 0.9 SSE 28 39 15 21 1008.8 1008.7 6.0
25/04:30am 18.2 15.7 17.0 93 0.7 SSE 26 37 14 20 1008.3 1008.2 6.0
25/04:06am 18.1 15.0 17.5 96 0.4 S 30 41 16 22 1007.8 1007.7 6.0
25/04:00am 18.2 15.2 17.7 97 0.3 SSE 30 41 16 22 1007.7 1007.6 6.0
25/03:56am 18.2 15.3 17.9 98 0.2 SSE 30 43 16 23 1007.6 1007.5 6.0
25/03:42am 18.9 16.8 18.9 100 0.0 SSE 28 35 15 19 1007.1 1007.0 6.0
25/03:30am 18.7 20.5 18.7 100 0.0 SSW 7 9 4 5 1006.2 1006.1 6.0
25/03:22am 18.9 21.3 18.9 100 0.0 S 4 9 2 5 1006.0 1005.9 6.0
25/03:12am 19.0 21.1 19.0 100 0.0 S 6 9 3 5 1005.9 1005.8 6.0
25/03:00am 19.1 21.1 19.1 100 0.0 SSW 7 13 4 7 1006.0 1005.9 6.0
25/02:55am 19.0 20.5 19.0 100 0.0 SSW 9 13 5 7 1006.1 1006.0 6.0
25/02:31am 18.8 22.0 18.8 100 0.0 CALM 0 0 0 0 1005.6 1005.5 6.0
25/02:30am 18.7 21.8 18.7 100 0.0 CALM 0 0 0 0 1005.6 1005.5 6.0
25/02:01am 19.1 21.1 19.1 100 0.0 N 7 11 4 6 1005.8 1005.7 6.0
25/02:00am 19.1 21.1 19.1 100 0.0 N 7 11 4 6 1005.8 1005.7 6.0
25/01:30am 19.3 21.9 19.3 100 0.0 W 4 9 2 5 1005.6 1005.5 6.0
25/01:08am 19.5 21.8 19.5 100 0.0 NNW 6 7 3 4 1006.7 1006.6 6.0
25/01:00am 19.7 21.2 19.7 100 0.0 NNW 11 17 6 9 1006.7 1006.6 6.0
25/12:58am 19.7 20.8 19.7 100 0.0 N 13 22 7 12 1006.7 1006.6 5.8
25/12:42am 19.8 19.6 19.8 100 0.0 ENE 20 26 11 14 1004.7 1004.6 5.8
25/12:30am 19.8 19.6 19.8 100 0.0 N 20 26 11 14 1006.7 1006.6 5.8
25/12:00am 19.4 21.1 19.4 100 0.0 N 9 15 5 8 1008.1 1008.0 5.8
 
Date/Time
EDT
Tmp

°C
App
Tmp
°C
Dew
Point
°C
Rel
Hum
%
Delta-T

°C
Wind Press
QNH
hPa
Press
MSL
hPa
Rain
since
9 am
mm
Dir
 
Spd
km/h
Gust
km/h
Spd
kts
Gust
kts
24/11:55pm 19.5 21.8 19.5 100 0.0 N 6 9 3 5 1008.5 1008.4 5.6
24/11:32pm 20.1 22.7 20.1 100 0.0 SW 6 11 3 6 1009.5 1009.4 1.8
24/11:30pm 20.2 23.3 20.2 100 0.0 SSW 4 11 2 6 1009.6 1009.5 1.4
24/11:00pm 20.1 21.0 20.1 100 0.0 SW 15 24 8 13 1009.1 1009.0 1.2
24/10:30pm 20.0 22.4 20.0 100 0.0 SW 7 9 4 5 1007.7 1007.6 1.2
24/10:13pm 20.3 22.5 20.3 100 0.0 N 9 15 5 8 1007.9 1007.8 1.2
24/10:00pm 20.1 21.8 20.1 100 0.0 N 11 17 6 9 1007.7 1007.6 1.2
24/09:30pm 19.7 22.1 19.7 100 0.0 NNE 6 7 3 4 1008.2 1008.1 1.2
24/09:00pm 20.1 23.9 20.1 100 0.0 CALM 0 6 0 3 1008.1 1008.0 1.0
24/08:47pm 20.3 22.5 20.3 100 0.0 ENE 9 11 5 6 1008.1 1008.0 1.0
24/08:39pm 20.3 23.0 20.3 100 0.0 N 6 9 3 5 1008.1 1008.0 1.0
24/08:30pm 20.2 22.9 20.2 100 0.0 WNW 6 9 3 5 1008.2 1008.1 1.0
24/08:28pm 20.2 22.9 20.2 100 0.0 W 6 9 3 5 1008.3 1008.2 1.0
24/08:00pm 20.5 23.3 20.5 100 0.0 NNW 6 11 3 6 1007.6 1007.5 1.0
24/07:48pm 20.5 23.3 20.5 100 0.0 NW 6 9 3 5 1007.4 1007.3 1.0
24/07:35pm 20.7 24.4 20.7 100 0.0 WSW 2 6 1 3 1007.6 1007.5 1.0
24/07:30pm 20.7 24.4 20.7 100 0.0 WSW 2 6 1 3 1007.5 1007.4 1.0
24/07:00pm 20.8 23.8 20.8 100 0.0 WSW 6 13 3 7 1007.4 1007.3 1.0
24/06:41pm 20.9 24.3 20.9 100 0.0 NW 4 7 2 4 1007.2 1007.1 1.0
24/06:30pm 20.7 22.7 20.7 100 0.0 N 11 17 6 9 1007.2 1007.1 1.0
24/06:23pm 20.7 21.9 20.7 100 0.0 NE 15 19 8 10 1006.9 1006.8 1.0
24/06:00pm 20.8 23.2 20.8 100 0.0 NE 9 11 5 6 1007.0 1006.9 1.0
24/05:34pm 21.6 25.0 21.6 100 0.0 NE 6 9 3 5 1007.4 1007.3 1.0
24/05:30pm 21.7 25.9 21.7 100 0.0 N 2 7 1 4 1007.5 1007.4 1.0
24/05:00pm 21.8 26.4 21.8 100 0.0 CALM 0 0 0 0 1008.2 1008.1 1.0
24/04:30pm 21.7 25.5 21.7 100 0.0 SSW 4 7 2 4 1008.5 1008.4 0.8
24/04:00pm 21.9 24.5 21.9 100 0.0 SSW 11 13 6 7 1008.8 1008.7 0.6
24/03:30pm 22.2 25.7 22.2 100 0.0 SSW 7 9 4 5 1009.2 1009.1 0.4
24/03:00pm 22.4 25.3 21.7 96 0.5 S 9 11 5 6 1009.3 1009.2 0.2
24/02:47pm 22.7 25.3 21.9 95 0.5 SSW 11 15 6 8 1009.6 1009.5 0.2
24/02:30pm 23.0 25.2 21.1 89 1.2 SSW 11 15 6 8 1009.4 1009.3 0.2
24/02:29pm 23.1 25.3 21.2 89 1.2 SSW 11 15 6 8 1009.3 1009.2 0.2
24/02:00pm 23.1 25.9 20.8 87 1.5 S 7 13 4 7 1009.6 1009.5 0.2
24/01:54pm 23.4 26.7 21.5 89 1.3 SSE 6 13 3 7 1009.6 1009.5 0.2
24/01:35pm 22.2 23.8 20.8 92 0.9 NE 13 17 7 9 1009.3 1009.2 0.2
24/01:30pm 22.1 23.3 20.6 91 1.0 NE 15 19 8 10 1009.1 1009.0 0.2
24/01:05pm 22.1 23.0 20.9 93 0.8 NE 17 22 9 12 1009.8 1009.7 0.2
24/01:00pm 21.8 22.2 20.6 93 0.8 NE 19 24 10 13 1009.8 1009.7 0.2
24/12:47pm 21.8 22.3 20.8 94 0.6 NE 19 22 10 12 1009.9 1009.8 0.2
24/12:30pm 21.9 22.2 20.7 93 0.8 NE 20 28 11 15 1010.2 1010.1 0.2
24/12:00pm 22.7 23.6 20.8 89 1.2 NE 17 24 9 13 1010.9 1010.8 0.2
24/11:30am 22.3 22.4 20.4 89 1.2 NNE 20 28 11 15 1011.2 1011.1 0.2
24/11:00am 21.3 20.4 20.6 96 0.5 NNE 26 35 14 19 1011.7 1011.6 0.2
24/10:30am 20.8 20.5 20.3 97 0.3 NE 22 30 12 16 1011.6 1011.5 0.2
24/10:00am 20.0 19.4 19.8 99 0.1 NE 22 32 12 17 1012.2 1012.1 0.2
24/09:30am 19.6 19.6 18.9 96 0.4 NE 17 22 9 12 1012.0 1011.9 0.0
24/09:00am 19.2 18.8 18.9 98 0.2 NNE 19 22 10 12 1011.6 1011.5 0.0
24/08:30am 18.8 21.6 18.8 100 0.0 NW 2 7 1 4 1011.3 1011.2 0.0
24/08:17am 18.8 22.0 18.8 100 0.0 CALM 0 0 0 0 1011.2 1011.1 0.0
24/08:01am 18.6 21.7 18.6 100 0.0 CALM 0 0 0 0 1011.3 1011.2 0.0
24/08:00am 18.5 21.5 18.5 100 0.0 CALM 0 0 0 0 1011.3 1011.2 0.0
24/07:30am 18.2 19.8 18.2 100 0.0 W 7 9 4 5 1011.4 1011.3 0.0
24/07:00am 18.2 21.0 18.0 99 0.1 CALM 0 0 0 0 1012.0 1011.9 0.0
24/06:30am 18.0 20.8 18.0 100 0.0 CALM 0 0 0 0 1012.6 1012.5 0.0
24/06:16am 17.8 20.1 17.8 100 0.0 S 2 9 1 5 1012.8 1012.7 0.0
24/06:00am 18.0 19.1 18.0 100 0.0 S 9 11 5 6 1013.1 1013.0 0.0
24/05:43am 17.9 19.5 17.9 100 0.0 SW 6 9 3 5 1013.8 1013.7 0.0
24/05:30am 18.0 19.1 18.0 100 0.0 SW 9 13 5 7 1014.2 1014.1 0.0
24/05:00am 18.2 20.7 18.2 100 0.0 S 2 9 1 5 1013.0 1012.9 0.0
24/04:30am 18.2 19.8 18.2 100 0.0 S 7 9 4 5 1013.5 1013.4 0.0
24/04:11am 18.1 21.0 18.1 100 0.0 CALM 0 0 0 0 1014.0 1013.9 0.0
24/04:00am 18.1 20.2 18.1 100 0.0 W 4 9 2 5 1014.7 1014.6 0.0
24/03:57am 18.1 19.8 18.1 100 0.0 W 6 11 3 6 1014.9 1014.8 0.0
24/03:30am 17.8 19.2 17.8 100 0.0 W 7 11 4 6 1014.2 1014.1 0.0
24/03:00am 17.8 19.4 17.8 100 0.0 WNW 6 9 3 5 1013.9 1013.8 0.0
24/02:53am 17.9 19.3 17.9 100 0.0 WNW 7 9 4 5 1013.9 1013.8 0.0
24/02:43am 18.0 20.4 18.0 100 0.0 NW 2 6 1 3 1013.9 1013.8 0.0
24/02:30am 18.1 19.6 18.1 100 0.0 NNW 7 9 4 5 1014.6 1014.5 0.0
24/02:00am 18.2 21.1 18.2 100 0.0 CALM 0 2 0 1 1014.3 1014.2 0.0
24/01:30am 18.5 20.2 18.5 100 0.0 WSW 7 9 4 5 1015.5 1015.4 0.0
24/01:00am 18.6 20.5 18.6 100 0.0 S 6 9 3 5 1014.7 1014.6 0.0
24/12:30am 18.6 21.3 18.6 100 0.0 WNW 2 7 1 4 1015.7 1015.6 0.0
24/12:00am 18.4 21.4 18.4 100 0.0 CALM 0 0 0 0 1014.8 1014.7 0.0
 
Date/Time
EDT
Tmp

°C
App
Tmp
°C
Dew
Point
°C
Rel
Hum
%
Delta-T

°C
Wind Press
QNH
hPa
Press
MSL
hPa
Rain
since
9 am
mm
Dir
 
Spd
km/h
Gust
km/h
Spd
kts
Gust
kts
23/11:30pm 18.8 20.8 18.8 100 0.0 SSW 6 11 3 6 1014.2 1014.1 0.0
23/11:24pm 18.8 20.6 18.8 100 0.0 S 7 11 4 6 1014.4 1014.3 0.0
23/11:08pm 18.7 20.5 18.7 100 0.0 SSW 7 9 4 5 1014.2 1014.1 0.0
23/11:00pm 18.8 20.3 18.8 100 0.0 S 9 13 5 7 1014.2 1014.1 0.0
23/10:45pm 18.6 20.3 18.6 100 0.0 S 7 11 4 6 1014.0 1013.9 0.0
23/10:30pm 18.8 20.3 18.8 100 0.0 S 9 13 5 7 1013.8 1013.7 0.0
23/10:26pm 18.6 20.3 18.6 100 0.0 S 7 13 4 7 1014.0 1013.9 0.0
23/10:00pm 18.4 20.0 17.9 97 0.3 S 6 9 3 5 1013.9 1013.8 0.0
23/09:30pm 18.7 19.9 18.2 97 0.3 SSW 9 11 5 6 1013.5 1013.4 0.0
23/09:00pm 18.9 20.9 17.9 94 0.6 SSW 4 9 2 5 1013.6 1013.5 0.0
23/08:30pm 19.0 20.3 17.0 88 1.2 S 6 9 3 5 1014.1 1014.0 0.0
23/08:21pm 19.4 21.0 17.0 86 1.5 SSE 4 7 2 4 1014.1 1014.0 0.0
23/08:11pm 19.9 22.4 17.3 85 1.6 CALM 0 6 0 3 1014.1 1014.0 0.0
23/08:00pm 20.2 21.6 17.4 84 1.7 ESE 6 7 3 4 1013.9 1013.8 0.0
23/07:58pm 20.3 21.7 17.3 83 1.8 SE 6 7 3 4 1013.8 1013.7 0.0
23/07:44pm 20.6 21.5 17.6 83 1.8 SSE 9 11 5 6 1013.1 1013.0 0.0
23/07:30pm 21.0 22.1 18.0 83 1.9 SSE 9 11 5 6 1013.0 1012.9 0.0
23/07:00pm 21.9 22.4 17.5 76 2.7 SSE 11 13 6 7 1012.9 1012.8 0.0
23/06:30pm 22.4 21.8 17.5 74 3.0 SSE 17 20 9 11 1012.2 1012.1 0.0
23/06:13pm 21.9 21.7 17.5 76 2.7 SE 15 20 8 11 1012.3 1012.2 0.0
23/06:00pm 22.6 22.9 17.9 75 2.9 SSE 13 17 7 9 1012.1 1012.0 0.0
23/05:59pm 22.5 22.8 17.8 75 2.9 SSE 13 17 7 9 1012.1 1012.0 0.0
23/05:30pm 23.0 22.2 18.1 74 3.1 SSE 19 22 10 12 1011.6 1011.5 0.0
23/05:00pm 22.8 22.3 17.9 74 3.1 SSE 17 22 9 12 1011.8 1011.7 0.0
23/04:30pm 22.2 20.9 17.3 74 3.0 SSE 20 26 11 14 1011.9 1011.8 0.0
23/04:01pm 22.6 21.3 17.3 72 3.3 S 20 30 11 16 1012.1 1012.0 0.0
23/04:00pm 22.6 21.4 17.5 73 3.2 S 20 30 11 16 1012.1 1012.0 0.0
23/03:30pm 22.1 20.6 17.7 76 2.7 SSE 22 30 12 16 1012.0 1011.9 0.0
23/03:00pm 22.2 20.5 18.0 77 2.6 S 24 32 13 17 1012.0 1011.9 0.0
23/02:30pm 23.2 21.9 19.1 78 2.6 S 24 32 13 17 1011.6 1011.5 0.0
23/02:28pm 23.2 22.1 19.4 79 2.4 S 24 33 13 18 1011.6 1011.5 0.0
23/02:21pm 22.9 22.2 19.5 81 2.2 SSE 22 33 12 18 1011.6 1011.5 0.0
23/02:00pm 23.1 22.7 21.0 88 1.4 SSE 24 33 13 18 1011.6 1011.5 0.0
23/01:30pm 23.7 23.5 21.2 86 1.6 SSE 24 33 13 18 1011.4 1011.3 0.0
23/01:15pm 23.5 22.8 21.0 86 1.6 SSE 26 33 14 18 1011.1 1011.0 0.0
23/01:00pm 24.4 26.3 22.1 87 1.5 ESE 15 22 8 12 1010.8 1010.7 0.0
23/12:30pm 23.6 25.9 21.3 87 1.5 E 11 17 6 9 1010.9 1010.8 0.0
23/12:00pm 23.7 25.8 21.0 85 1.8 E 11 17 6 9 1011.0 1010.9 0.0
23/11:30am 23.6 25.3 20.9 85 1.8 E 13 17 7 9 1011.1 1011.0 0.0
23/11:00am 23.4 24.6 20.0 81 2.2 E 13 15 7 8 1011.1 1011.0 0.0
23/10:30am 23.4 24.6 20.0 81 2.2 E 13 15 7 8 1011.0 1010.9 0.0
23/10:00am 23.9 24.9 19.4 76 2.9 E 13 15 7 8 1010.9 1010.8 0.0
23/09:30am 24.7 26.9 19.5 73 3.3 SSW 7 11 4 6 1010.7 1010.6 0.0
23/09:00am 22.7 25.1 18.9 79 2.4 NNE 4 9 2 5 1010.4 1010.3 0.0
23/08:30am 19.4 21.6 19.1 98 0.2 N 6 9 3 5 1010.3 1010.2 0.0
23/08:02am 18.5 19.8 18.5 100 0.0 NNW 9 13 5 7 1010.1 1010.0 0.0
23/08:00am 18.5 19.8 18.5 100 0.0 NNW 9 11 5 6 1010.1 1010.0 0.0
23/07:43am 18.3 20.5 18.3 100 0.0 NNE 4 9 2 5 1010.3 1010.2 0.0
23/07:41am 18.2 20.3 18.2 100 0.0 NNE 4 9 2 5 1010.4 1010.3 0.0
23/07:30am 17.7 20.0 17.7 100 0.0 NNE 2 9 1 5 1010.4 1010.3 0.0
23/07:23am 17.6 19.5 17.6 100 0.0 E 4 9 2 5 1010.3 1010.2 0.0
23/07:00am 16.9 18.1 16.9 100 0.0 NNE 6 9 3 5 1010.8 1010.7 0.0
23/06:36am 16.4 16.1 16.4 100 0.0 SW 13 17 7 9 1010.4 1010.3 0.0
23/06:30am 16.0 16.3 16.0 100 0.0 WNW 9 17 5 9 1010.1 1010.0 0.0
23/06:26am 15.7 16.4 15.7 100 0.0 NNW 6 11 3 6 1009.8 1009.7 0.0
23/06:24am 15.8 17.0 15.8 100 0.0 NNW 4 9 2 5 1009.7 1009.6 0.0
23/06:00am 14.7 15.5 14.7 100 0.0 W 4 7 2 4 1010.2 1010.1 0.0
23/05:34am 14.4 15.8 14.4 100 0.0 CALM 0 0 0 0 1009.7 1009.6 0.0
23/05:30am 14.4 15.8 14.4 100 0.0 CALM 0 0 0 0 1009.7 1009.6 0.0
23/05:26am 14.3 15.7 14.3 100 0.0 CALM 0 0 0 0 1009.7 1009.6 0.0
23/05:00am 14.2 15.5 14.2 100 0.0 CALM 0 7 0 4 1009.4 1009.3 0.0
23/04:30am 14.7 16.2 14.7 100 0.0 CALM 0 0 0 0 1009.4 1009.3 0.0
23/04:10am 14.7 16.2 14.7 100 0.0 CALM 0 2 0 1 1009.2 1009.1 0.0
23/04:03am 14.5 15.2 14.5 100 0.0 W 4 6 2 3 1009.3 1009.2 0.0
23/04:00am 14.7 15.1 14.7 100 0.0 WNW 6 6 3 3 1009.2 1009.1 0.0
23/03:30am 14.8 16.4 14.8 100 0.0 CALM 0 0 0 0 1009.2 1009.1 0.0
23/03:00am 15.1 15.6 15.1 100 0.0 W 6 9 3 5 1009.7 1009.6 0.0
23/02:30am 15.1 16.4 15.1 100 0.0 SSW 2 6 1 3 1009.5 1009.4 0.0
23/02:00am 14.9 16.5 14.9 100 0.0 CALM 0 0 0 0 1009.7 1009.6 0.0
23/01:30am 15.3 15.9 15.3 100 0.0 N 6 7 3 4 1010.1 1010.0 0.0
23/01:00am 15.2 16.9 15.2 100 0.0 CALM 0 0 0 0 1010.4 1010.3 0.0
23/12:30am 15.3 17.0 15.3 100 0.0 CALM 0 0 0 0 1010.9 1010.8 0.0
23/12:09am 15.8 17.7 15.8 100 0.0 CALM 0 0 0 0 1011.1 1011.0 0.0
23/12:03am 15.6 17.4 15.6 100 0.0 CALM 0 0 0 0 1011.3 1011.2 0.0
23/12:00am 15.9 17.9 15.9 100 0.0 CALM 0 0 0 0 1011.4 1011.3 0.0
 
Date/Time
EDT
Tmp

°C
App
Tmp
°C
Dew
Point
°C
Rel
Hum
%
Delta-T

°C
Wind Press
QNH
hPa
Press
MSL
hPa
Rain
since
9 am
mm
Dir
 
Spd
km/h
Gust
km/h
Spd
kts
Gust
kts
22/11:45pm 15.7 17.2 15.7 100 0.0 W 2 7 1 4 1011.5 1011.4 0.0
22/11:30pm 16.2 18.3 16.2 100 0.0 CALM 0 2 0 1 1011.8 1011.7 0.0
22/11:12pm 16.3 17.1 16.3 100 0.0 NW 7 9 4 5 1011.7 1011.6 0.0
22/11:00pm 15.9 17.5 15.9 100 0.0 N 2 6 1 3 1011.8 1011.7 0.0
22/10:37pm 16.3 18.4 16.3 100 0.0 CALM 0 0 0 0 1012.1 1012.0 0.0
22/10:30pm 16.7 19.0 16.7 100 0.0 CALM 0 0 0 0 1012.2 1012.1 0.0
22/10:19pm 16.6 18.8 16.6 100 0.0 CALM 0 0 0 0 1012.2 1012.1 0.0
22/10:03pm 16.9 19.3 16.9 100 0.0 CALM 0 0 0 0 1012.2 1012.1 0.0
22/10:01pm 17.0 19.4 17.0 100 0.0 CALM 0 0 0 0 1012.3 1012.2 0.0
22/10:00pm 17.0 19.4 17.0 100 0.0 CALM 0 0 0 0 1012.3 1012.2 0.0
22/09:30pm 17.7 20.3 17.5 99 0.1 CALM 0 0 0 0 1012.2 1012.1 0.0
22/09:20pm 17.9 19.5 17.9 100 0.0 NNW 6 9 3 5 1012.3 1012.2 0.0
22/09:00pm 18.1 20.4 17.8 98 0.2 N 2 7 1 4 1012.1 1012.0 0.0
22/08:37pm 18.6 20.6 17.9 96 0.4 N 4 7 2 4 1012.1 1012.0 0.0
22/08:30pm 19.0 20.9 18.5 97 0.3 N 6 9 3 5 1012.1 1012.0 0.0
22/08:18pm 19.1 20.8 18.4 96 0.4 N 7 9 4 5 1012.2 1012.1 0.0
22/08:00pm 19.7 21.6 18.9 95 0.5 NE 7 9 4 5 1011.9 1011.8 0.0
22/07:51pm 19.7 21.5 18.7 94 0.6 NNE 7 9 4 5 1012.0 1011.9 0.0
22/07:30pm 20.1 22.0 18.9 93 0.8 NE 7 9 4 5 1012.0 1011.9 0.0
22/07:20pm 20.2 22.1 19.0 93 0.8 ENE 7 9 4 5 1011.8 1011.7 0.0
22/07:00pm 20.3 21.5 19.0 92 0.8 ENE 11 13 6 7 1011.5 1011.4 0.0
22/06:56pm 20.4 21.5 18.9 91 0.9 ENE 11 13 6 7 1011.4 1011.3 0.0
22/06:44pm 20.7 21.3 18.6 88 1.3 E 13 17 7 9 1011.5 1011.4 0.0
22/06:30pm 21.2 21.7 18.4 84 1.7 E 13 17 7 9 1011.3 1011.2 0.0
22/06:00pm 21.5 22.0 18.3 82 2.0 E 13 15 7 8 1011.1 1011.0 0.0
22/05:30pm 21.6 20.9 18.2 81 2.1 ENE 19 22 10 12 1010.8 1010.7 0.0
22/05:00pm 21.7 20.6 17.7 78 2.5 NE 20 28 11 15 1010.4 1010.3 0.0
22/04:30pm 22.0 20.0 17.4 75 2.8 NNE 24 30 13 16 1010.5 1010.4 0.0
22/04:00pm 21.8 19.7 17.2 75 2.8 NE 24 32 13 17 1010.7 1010.6 0.0
22/03:30pm 22.1 19.1 16.8 72 3.2 NE 28 37 15 20 1010.9 1010.8 0.0
22/03:00pm 22.1 18.3 15.7 67 3.8 NE 30 39 16 21 1010.8 1010.7 0.0
22/02:30pm 22.4 19.2 16.4 69 3.6 NE 28 35 15 19 1011.2 1011.1 0.0
22/02:00pm 23.0 21.0 17.5 71 3.4 NE 24 33 13 18 1011.5 1011.4 0.0
22/01:30pm 22.5 20.1 16.3 68 3.8 NE 24 32 13 17 1011.7 1011.6 0.0
22/01:00pm 22.0 19.5 16.1 69 3.6 NE 24 33 13 18 1012.1 1012.0 0.0
22/12:30pm 21.9 19.3 16.0 69 3.6 NE 24 30 13 16 1012.6 1012.5 0.0
22/12:00pm 22.3 18.8 15.4 65 4.1 ENE 28 33 15 18 1013.1 1013.0 0.0
22/11:30am 22.4 18.0 11.8 51 6.0 NE 26 32 14 17 1013.7 1013.6 0.0

Latest Capital City Observations: Canberra | Sydney | Melbourne | Brisbane | Adelaide | Perth | Hobart | Darwin

Other Formats:

Comma delimited format used in spreadsheet applications
http://www.bom.gov.au/fwo/IDN60903/IDN60903.95937.axf

JavaScript Object Notation format (JSON) in row-major order
http://www.bom.gov.au/fwo/IDN60903/IDN60903.95937.json